Time;durP1;ratioP1;P1;durP2;ratioP2;P2;SDS_P1;SDS_P2;PMS_P1;PMS_P2;Temp;Humidity;BMP_temperature;BMP_pressure;BME280_temperature;BME280_humidity;BME280_pressure;Samples;Min_cycle;Max_cycle;Signal;HPM_P1;HPM_P2
2023/01/11 00:02:01;;;;;;;7.77;1.33;;;7.50;99.90;;;;;;5011939;28;20644;-77
2023/01/11 00:04:47;;;;;;;10.70;1.80;;;7.50;99.90;;;;;;5010349;28;20919;-77
2023/01/11 00:07:34;;;;;;;7.00;2.30;;;7.40;99.90;;;;;;5009687;28;20456;-77
2023/01/11 00:10:20;;;;;;;6.85;1.95;;;7.40;99.90;;;;;;5005566;28;20816;-77
2023/01/11 00:13:06;;;;;;;9.37;2.00;;;7.50;99.90;;;;;;5007850;28;20199;-77
2023/01/11 00:15:51;;;;;;;3.27;1.57;;;7.60;99.90;;;;;;5009867;28;20509;-77
2023/01/11 00:18:38;;;;;;;9.33;2.00;;;7.60;99.90;;;;;;5012470;28;20479;-77
2023/01/11 00:21:25;;;;;;;5.73;1.90;;;7.70;99.90;;;;;;5006324;28;20449;-77
2023/01/11 00:24:12;;;;;;;5.83;1.70;;;7.60;99.90;;;;;;5004404;28;20530;-77
2023/01/11 00:26:57;;;;;;;5.23;1.63;;;7.70;99.90;;;;;;5014500;28;20626;-77
2023/01/11 00:29:43;;;;;;;5.40;2.10;;;7.60;99.90;;;;;;5006024;28;20441;-77
2023/01/11 00:32:29;;;;;;;3.87;1.60;;;7.50;99.90;;;;;;5013466;28;20466;-77
2023/01/11 00:35:15;;;;;;;6.20;1.90;;;7.50;99.90;;;;;;5007408;28;20456;-77
2023/01/11 00:38:01;;;;;;;7.45;1.83;;;7.60;99.90;;;;;;5010020;28;20225;-77
2023/01/11 00:40:48;;;;;;;10.40;2.53;;;7.60;99.90;;;;;;5001768;28;20398;-77
2023/01/11 00:49:36;;;;;;;7.88;1.90;;;7.70;99.90;;;;;;5030614;28;20457;-77
2023/01/11 00:52:22;;;;;;;5.70;1.98;;;7.70;99.90;;;;;;5006557;28;20287;-77
2023/01/11 00:55:09;;;;;;;6.30;2.00;;;7.60;99.90;;;;;;5016363;28;20226;-77
2023/01/11 00:57:55;;;;;;;4.40;2.00;;;7.60;99.90;;;;;;5015375;28;20430;-77
2023/01/11 01:00:41;;;;;;;3.80;1.73;;;7.60;99.90;;;;;;5014773;28;20205;-77
2023/01/11 01:03:27;;;;;;;3.53;1.73;;;7.70;99.90;;;;;;5029340;28;20438;-77
2023/01/11 01:06:13;;;;;;;3.60;1.70;;;7.70;99.90;;;;;;5010318;28;20230;-77
2023/01/11 01:08:58;;;;;;;3.45;1.60;;;7.70;99.90;;;;;;4999656;28;20832;-77
2023/01/11 01:11:44;;;;;;;7.93;1.97;;;7.70;99.90;;;;;;5005429;28;20568;-77
2023/01/11 01:14:32;;;;;;;9.13;1.60;;;7.70;99.90;;;;;;5002563;28;22104;-77
2023/01/11 01:17:17;;;;;;;4.22;1.45;;;7.70;99.90;;;;;;5005346;28;20206;-77
2023/01/11 01:20:04;;;;;;;7.47;1.77;;;7.80;99.90;;;;;;5001390;28;20693;-77
2023/01/11 01:22:49;;;;;;;12.90;1.80;;;7.80;99.90;;;;;;5009065;28;20210;-77
2023/01/11 01:25:37;;;;;;;9.97;1.63;;;7.70;99.90;;;;;;5002884;28;20367;-77
2023/01/11 01:28:23;;;;;;;4.07;1.60;;;7.80;99.90;;;;;;5003483;28;20449;-77
2023/01/11 01:31:11;;;;;;;6.53;1.85;;;7.90;99.90;;;;;;5007518;28;20546;-77
2023/01/11 01:33:57;;;;;;;5.78;1.63;;;7.90;99.90;;;;;;5007398;28;20735;-77
2023/01/11 01:36:43;;;;;;;2.73;1.60;;;7.90;99.90;;;;;;5009954;28;20230;-77
2023/01/11 01:39:29;;;;;;;6.77;1.70;;;7.80;99.90;;;;;;4999811;28;20558;-77
2023/01/11 01:42:15;;;;;;;3.20;1.60;;;7.80;99.90;;;;;;5006618;28;20445;-77
2023/01/11 01:45:05;;;;;;;5.37;1.70;;;7.70;99.90;;;;;;5008140;28;20445;-77
2023/01/11 01:47:57;;;;;;;5.23;1.70;;;7.70;99.90;;;;;;5001627;28;20477;-76
2023/01/11 01:50:48;;;;;;;3.60;1.60;;;7.80;99.90;;;;;;5007792;28;20449;-76
2023/01/11 01:53:37;;;;;;;13.03;1.80;;;7.80;99.90;;;;;;5003544;28;21747;-76
2023/01/11 01:56:27;;;;;;;5.40;1.60;;;7.90;99.90;;;;;;5008884;28;20465;-76
2023/01/11 01:59:15;;;;;;;3.57;1.50;;;8.00;99.90;;;;;;4997121;28;20477;-76
2023/01/11 02:02:01;;;;;;;9.77;2.03;;;8.00;99.90;;;;;;5004662;28;20453;-76
2023/01/11 02:04:49;;;;;;;7.67;1.87;;;8.00;99.90;;;;;;5008107;28;20549;-76
2023/01/11 02:07:38;;;;;;;2.70;1.40;;;8.10;99.90;;;;;;5006178;28;20937;-76
2023/01/11 02:10:26;;;;;;;6.40;1.87;;;8.10;99.90;;;;;;5008048;28;20445;-76
2023/01/11 02:13:13;;;;;;;7.23;2.23;;;8.10;99.90;;;;;;5005685;28;20423;-76
2023/01/11 02:16:07;;;;;;;4.70;1.90;;;8.20;99.90;;;;;;5008467;28;20996;-76
2023/01/11 02:18:53;;;;;;;6.23;1.67;;;8.20;99.90;;;;;;5000422;28;20578;-76
2023/01/11 02:22:12;;;;;;;3.27;1.67;;;8.20;99.90;;;;;;5002396;28;20416;-76
2023/01/11 02:25:29;;;;;;;3.93;1.40;;;8.20;99.90;;;;;;5007401;28;20563;-76
2023/01/11 02:28:23;;;;;;;3.37;1.80;;;8.30;99.90;;;;;;5000679;28;20560;-76
2023/01/11 02:31:16;;;;;;;5.70;1.80;;;8.20;99.90;;;;;;5012431;28;20423;-76
2023/01/11 02:34:19;;;;;;;3.43;1.30;;;8.30;99.90;;;;;;5006646;28;20473;-76
2023/01/11 02:37:16;;;;;;;5.40;1.50;;;8.20;99.90;;;;;;5004829;28;20481;-76
2023/01/11 02:40:07;;;;;;;8.07;2.17;;;8.30;99.90;;;;;;5029139;28;20512;-76
2023/01/11 02:46:09;;;;;;;3.10;1.87;;;8.40;99.90;;;;;;5004050;28;20259;-76
2023/01/11 02:49:04;;;;;;;5.50;1.73;;;8.30;99.90;;;;;;5015206;28;20454;-76
2023/01/11 02:51:54;;;;;;;2.80;1.40;;;8.30;99.90;;;;;;4999658;28;20880;-76
2023/01/11 02:54:43;;;;;;;4.73;2.00;;;8.40;99.90;;;;;;5010378;28;20459;-76
2023/01/11 02:57:32;;;;;;;6.28;2.88;;;8.40;99.90;;;;;;5008775;28;20495;-76
2023/01/11 03:00:20;;;;;;;2.90;1.57;;;8.40;99.90;;;;;;5009075;28;20302;-75
2023/01/11 03:03:12;;;;;;;5.10;1.40;;;8.40;99.90;;;;;;5005548;28;20552;-76
2023/01/11 03:06:02;;;;;;;7.07;1.90;;;8.40;99.90;;;;;;5021919;28;20825;-76
2023/01/11 03:09:05;;;;;;;4.77;1.53;;;8.40;99.90;;;;;;5011555;28;20475;-76
2023/01/11 03:15:18;;;;;;;11.57;2.70;;;8.30;99.90;;;;;;5006090;28;20557;-76
2023/01/11 03:18:21;;;;;;;6.03;1.80;;;8.30;99.90;;;;;;5006996;28;20276;-76
2023/01/11 03:21:30;;;;;;;6.70;1.70;;;8.30;99.90;;;;;;5005564;28;20468;-76
2023/01/11 03:24:28;;;;;;;3.80;1.70;;;8.30;99.90;;;;;;5007854;28;20461;-76
2023/01/11 03:27:22;;;;;;;8.13;1.57;;;8.30;99.90;;;;;;5000206;28;20445;-76
2023/01/11 03:30:15;;;;;;;5.32;1.55;;;8.30;99.90;;;;;;5009125;28;20452;-76
2023/01/11 03:33:04;;;;;;;3.15;1.30;;;8.30;99.90;;;;;;5001921;28;20244;-76
2023/01/11 03:35:58;;;;;;;4.03;1.70;;;8.30;99.90;;;;;;5003712;28;20248;-76
2023/01/11 03:38:51;;;;;;;2.10;1.50;;;8.40;99.90;;;;;;5004841;28;20278;-76
2023/01/11 03:41:41;;;;;;;2.93;1.50;;;8.40;99.90;;;;;;5004014;28;20218;-76
2023/01/11 03:44:32;;;;;;;6.82;1.40;;;8.40;99.90;;;;;;5003306;28;20449;-76
2023/01/11 03:47:21;;;;;;;4.13;1.70;;;8.50;99.90;;;;;;5000549;28;20202;-76
2023/01/11 03:50:11;;;;;;;3.92;1.60;;;8.50;99.90;;;;;;5006486;28;20523;-76
2023/01/11 03:53:00;;;;;;;3.67;1.25;;;8.50;99.90;;;;;;5006652;28;20614;-76
2023/01/11 03:55:51;;;;;;;3.53;1.50;;;8.60;99.90;;;;;;5003638;28;20616;-76
2023/01/11 03:58:36;;;;;;;4.25;1.67;;;8.50;99.90;;;;;;5006405;28;20445;-76
2023/01/11 04:01:23;;;;;;;3.43;1.50;;;8.50;99.90;;;;;;5007812;28;20210;-76
2023/01/11 04:04:09;;;;;;;6.72;1.90;;;8.60;99.90;;;;;;5013380;28;20457;-76
2023/01/11 04:06:56;;;;;;;2.60;1.40;;;8.50;99.90;;;;;;5005280;28;20291;-76
2023/01/11 04:09:43;;;;;;;4.00;1.80;;;8.50;99.90;;;;;;5010282;28;20533;-76
2023/01/11 04:12:28;;;;;;;3.00;1.50;;;8.60;99.90;;;;;;5004588;28;20331;-76
2023/01/11 04:15:15;;;;;;;2.22;1.17;;;8.60;99.90;;;;;;5023464;23;20835;-73
2023/01/11 04:18:03;;;;;;;3.50;1.80;;;8.60;99.90;;;;;;5072952;28;20382;-74
2023/01/11 04:20:49;;;;;;;3.08;1.98;;;8.70;99.90;;;;;;5074051;28;20469;-72
2023/01/11 04:23:35;;;;;;;2.50;1.50;;;8.80;99.90;;;;;;5074986;28;20223;-72
2023/01/11 04:26:22;;;;;;;2.47;1.40;;;8.70;99.90;;;;;;5069273;28;20482;-73
2023/01/11 04:29:07;;;;;;;5.00;1.50;;;8.80;99.90;;;;;;5073460;28;20454;-72
2023/01/11 04:31:53;;;;;;;3.40;1.50;;;8.80;99.90;;;;;;5074274;28;20588;-73
2023/01/11 04:34:39;;;;;;;4.70;1.37;;;8.80;99.90;;;;;;5078299;28;20458;-72
2023/01/11 04:37:24;;;;;;;2.20;1.40;;;8.90;99.90;;;;;;5069594;28;21000;-72
2023/01/11 04:40:11;;;;;;;3.47;1.45;;;8.90;99.90;;;;;;5073602;28;20486;-72
2023/01/11 04:43:01;;;;;;;5.90;1.50;;;8.90;99.90;;;;;;5077544;28;20220;-72
2023/01/11 04:45:46;;;;;;;3.37;1.60;;;8.90;99.90;;;;;;5077542;28;20459;-72
2023/01/11 04:48:33;;;;;;;2.67;1.50;;;8.90;99.90;;;;;;5069660;28;20893;-72
2023/01/11 04:51:19;;;;;;;3.93;1.53;;;8.90;99.90;;;;;;5065275;28;20515;-75
2023/01/11 04:54:05;;;;;;;5.97;1.50;;;8.90;99.90;;;;;;5077665;28;20423;-73
2023/01/11 04:56:50;;;;;;;3.07;1.27;;;8.90;99.90;;;;;;5068276;28;20572;-72
2023/01/11 04:59:37;;;;;;;4.47;1.40;;;8.90;99.90;;;;;;5074697;28;20482;-73
2023/01/11 05:02:23;;;;;;;2.20;1.30;;;9.00;99.90;;;;;;5083269;28;20492;-72
2023/01/11 05:05:10;;;;;;;2.87;2.27;;;9.00;99.90;;;;;;5064155;28;20465;-72
2023/01/11 05:07:56;;;;;;;2.50;1.13;;;8.90;99.90;;;;;;5072700;28;20458;-73
2023/01/11 05:10:41;;;;;;;4.73;1.77;;;8.90;99.90;;;;;;5081673;28;21014;-72
2023/01/11 05:13:40;;;;;;;6.20;1.90;;;8.90;99.90;;;;;;5067137;28;20450;-72
2023/01/11 05:16:27;;;;;;;2.40;1.53;;;8.80;99.90;;;;;;5067029;28;20477;-73
2023/01/11 05:19:12;;;;;;;4.17;1.83;;;8.90;99.90;;;;;;5071407;28;20565;-72
2023/01/11 05:21:58;;;;;;;2.23;1.33;;;8.80;99.90;;;;;;5075201;28;20441;-73
2023/01/11 05:24:44;;;;;;;4.63;1.73;;;8.80;99.90;;;;;;5074391;28;20438;-72
2023/01/11 05:27:30;;;;;;;4.80;1.38;;;8.70;99.90;;;;;;5069570;28;20914;-72
2023/01/11 05:30:17;;;;;;;3.47;1.90;;;8.70;99.90;;;;;;5075338;28;20197;-73
2023/01/11 05:33:04;;;;;;;6.20;2.00;;;8.80;99.90;;;;;;5079301;28;20541;-72
2023/01/11 05:35:49;;;;;;;2.70;1.40;;;8.70;99.90;;;;;;5068971;28;20455;-73
2023/01/11 05:38:35;;;;;;;4.67;1.70;;;8.70;99.90;;;;;;5076025;28;20458;-72
2023/01/11 05:41:23;;;;;;;1.93;1.40;;;8.70;99.90;;;;;;5077446;28;20574;-73
2023/01/11 05:47:15;;;;;;;2.93;1.70;;;8.80;99.90;;;;;;5072982;28;20494;-73
2023/01/11 05:50:02;;;;;;;3.15;1.70;;;8.70;99.90;;;;;;5072853;28;20455;-72
2023/01/11 05:52:48;;;;;;;3.27;2.10;;;8.70;99.90;;;;;;5071991;28;20700;-72
2023/01/11 05:55:33;;;;;;;3.37;2.20;;;8.70;99.90;;;;;;5070608;28;20482;-73
2023/01/11 05:58:19;;;;;;;3.57;2.10;;;8.80;99.90;;;;;;5083047;28;20495;-73
2023/01/11 06:01:07;;;;;;;2.97;2.27;;;8.80;99.90;;;;;;5069847;28;20938;-72
2023/01/11 06:03:53;;;;;;;4.43;2.13;;;8.90;99.90;;;;;;5071394;28;20963;-74
2023/01/11 06:06:40;;;;;;;6.23;2.50;;;8.80;99.90;;;;;;5077347;28;20552;-72
2023/01/11 06:09:25;;;;;;;5.80;3.10;;;8.80;99.90;;;;;;5068311;28;20441;-72
2023/01/11 06:12:11;;;;;;;10.17;2.90;;;8.90;99.90;;;;;;5070315;28;20536;-72
2023/01/11 06:14:57;;;;;;;3.00;2.20;;;8.90;99.90;;;;;;5078750;28;20521;-73
2023/01/11 06:17:42;;;;;;;3.13;2.30;;;8.90;99.90;;;;;;5079561;28;20541;-72
2023/01/11 06:20:28;;;;;;;8.87;2.03;;;8.90;99.90;;;;;;5073563;28;20485;-72
2023/01/11 06:23:15;;;;;;;3.00;1.83;;;9.00;99.90;;;;;;5070051;28;20446;-72
2023/01/11 06:26:02;;;;;;;2.90;2.03;;;8.90;99.90;;;;;;5070349;28;20219;-72
2023/01/11 06:28:47;;;;;;;2.73;1.60;;;8.90;99.90;;;;;;5075948;28;21013;-73
2023/01/11 06:31:33;;;;;;;4.30;2.17;;;9.00;99.90;;;;;;5069845;28;20434;-72
2023/01/11 06:34:18;;;;;;;4.33;1.93;;;9.00;99.90;;;;;;5073466;28;20441;-72
2023/01/11 06:37:04;;;;;;;4.80;1.93;;;9.00;99.90;;;;;;5068398;28;20536;-72
2023/01/11 06:39:51;;;;;;;4.83;1.87;;;9.00;99.90;;;;;;5063612;28;20467;-72
2023/01/11 06:42:37;;;;;;;5.90;2.23;;;9.00;99.90;;;;;;5072294;28;20560;-72
2023/01/11 06:45:22;;;;;;;6.80;2.47;;;9.00;99.90;;;;;;5076653;28;21186;-72
2023/01/11 06:48:08;;;;;;;3.87;2.07;;;9.10;99.90;;;;;;5074999;28;20779;-73
2023/01/11 06:50:55;;;;;;;3.73;1.90;;;9.10;99.90;;;;;;5067492;28;20812;-72
2023/01/11 06:53:42;;;;;;;7.53;2.80;;;9.20;99.90;;;;;;5076317;28;20397;-73
2023/01/11 06:56:29;;;;;;;5.40;3.10;;;9.30;99.90;;;;;;5075050;28;20497;-73
2023/01/11 06:59:15;;;;;;;3.33;2.20;;;9.30;99.90;;;;;;5070505;28;20914;-72
2023/01/11 07:02:00;;;;;;;3.97;1.80;;;9.30;99.90;;;;;;5070976;28;20501;-73
2023/01/11 07:04:46;;;;;;;2.83;1.60;;;9.40;99.90;;;;;;5073688;28;20422;-74
2023/01/11 07:07:31;;;;;;;2.27;1.47;;;9.30;99.90;;;;;;5072096;28;20495;-74
2023/01/11 07:10:17;;;;;;;6.32;3.13;;;9.30;99.90;;;;;;5073419;28;20436;-74
2023/01/11 07:13:05;;;;;;;2.80;1.20;;;9.40;99.90;;;;;;5077777;28;20204;-74
2023/01/11 07:15:52;;;;;;;1.60;1.30;;;9.50;99.90;;;;;;5067345;28;20520;-73
2023/01/11 07:18:38;;;;;;;6.57;2.90;;;9.50;99.90;;;;;;5072274;28;20537;-74
2023/01/11 07:21:24;;;;;;;3.00;1.80;;;9.50;99.90;;;;;;5075174;28;20816;-74
2023/01/11 07:24:10;;;;;;;2.60;1.40;;;9.50;99.90;;;;;;5069395;28;20497;-71
2023/01/11 07:26:58;;;;;;;3.97;2.17;;;9.50;99.90;;;;;;5067936;28;20466;-73
2023/01/11 07:29:45;;;;;;;8.53;3.33;;;9.60;99.90;;;;;;5082859;28;20444;-75
2023/01/11 07:32:31;;;;;;;2.40;1.50;;;9.60;99.90;;;;;;5077145;28;20440;-74
2023/01/11 07:35:17;;;;;;;4.43;2.07;;;9.60;99.90;;;;;;5073452;28;20455;-74
2023/01/11 07:38:06;;;;;;;6.20;1.73;;;9.70;99.90;;;;;;5071680;28;20963;-74
2023/01/11 07:40:51;;;;;;;3.93;1.47;;;9.70;99.90;;;;;;5081453;28;20469;-73
2023/01/11 07:43:36;;;;;;;3.93;1.37;;;9.80;99.90;;;;;;5079914;28;20422;-74
2023/01/11 07:46:23;;;;;;;2.60;1.13;;;9.80;99.90;;;;;;5074871;28;20477;-72
2023/01/11 07:49:09;;;;;;;3.50;1.30;;;9.70;99.90;;;;;;5068592;28;20427;-74
2023/01/11 07:51:55;;;;;;;1.50;1.00;;;9.70;99.90;;;;;;5080712;28;20414;-74
2023/01/11 07:54:40;;;;;;;4.10;1.40;;;9.70;99.90;;;;;;5066809;28;20462;-74
2023/01/11 07:57:26;;;;;;;3.40;1.30;;;9.60;99.90;;;;;;5076065;28;20572;-74
2023/01/11 08:00:13;;;;;;;1.97;1.03;;;9.60;99.90;;;;;;5081887;28;20447;-74
2023/01/11 08:03:01;;;;;;;5.20;1.40;;;9.60;99.90;;;;;;5079774;28;20434;-74
2023/01/11 08:05:50;;;;;;;3.73;1.00;;;9.60;99.90;;;;;;5070186;28;20469;-73
2023/01/11 08:08:35;;;;;;;5.07;1.20;;;9.60;99.90;;;;;;5073198;28;20814;-74
2023/01/11 08:17:34;;;;;;;2.60;1.37;;;9.70;99.90;;;;;;5080424;28;20508;-74
2023/01/11 08:20:21;;;;;;;2.50;1.33;;;9.70;99.90;;;;;;5084893;28;21038;-74
2023/01/11 08:23:09;;;;;;;2.03;1.30;;;9.70;99.90;;;;;;5085419;28;20438;-74
2023/01/11 08:25:57;;;;;;;3.43;1.60;;;9.70;99.90;;;;;;5072824;28;20469;-74
2023/01/11 08:28:42;;;;;;;1.63;1.03;;;9.80;99.90;;;;;;5082466;28;20453;-74
2023/01/11 08:31:29;;;;;;;1.80;1.20;;;9.70;99.90;;;;;;5087641;28;21019;-74
2023/01/11 08:34:14;;;;;;;3.70;1.63;;;9.80;99.90;;;;;;5074727;28;20456;-73
2023/01/11 08:37:02;;;;;;;6.63;3.37;;;9.80;99.90;;;;;;5069614;28;20457;-73
2023/01/11 08:39:48;;;;;;;2.30;1.17;;;9.90;99.90;;;;;;5076354;28;20402;-74
2023/01/11 08:42:33;;;;;;;1.70;1.10;;;9.90;99.90;;;;;;5081487;28;20442;-74
2023/01/11 08:45:19;;;;;;;2.43;1.40;;;9.90;99.90;;;;;;5071323;28;20495;-73
2023/01/11 08:48:05;;;;;;;1.70;1.10;;;9.90;99.90;;;;;;5067466;28;20501;-74
2023/01/11 08:50:52;;;;;;;5.60;3.07;;;10.00;99.90;;;;;;5071282;28;20492;-74
2023/01/11 08:53:39;;;;;;;4.13;1.97;;;9.90;99.90;;;;;;5076414;28;20431;-73
2023/01/11 08:56:24;;;;;;;2.80;1.70;;;10.00;99.90;;;;;;5071885;28;20491;-74
2023/01/11 08:59:11;;;;;;;3.30;1.20;;;10.00;99.90;;;;;;5075429;28;20448;-73
2023/01/11 09:01:56;;;;;;;3.20;1.43;;;10.00;99.90;;;;;;5074640;28;20462;-74
2023/01/11 09:04:42;;;;;;;4.77;2.17;;;10.00;99.90;;;;;;5082783;28;20397;-74
2023/01/11 09:07:28;;;;;;;3.13;1.37;;;10.00;99.90;;;;;;5079782;28;21044;-73
2023/01/11 09:10:15;;;;;;;2.43;1.30;;;10.00;99.90;;;;;;5068387;28;20807;-74
2023/01/11 09:13:01;;;;;;;2.90;1.30;;;10.00;99.90;;;;;;5083072;28;20517;-74
2023/01/11 09:15:46;;;;;;;2.07;1.33;;;10.00;99.90;;;;;;5082168;28;20460;-74
2023/01/11 09:18:32;;;;;;;3.03;1.30;;;10.00;99.90;;;;;;5079955;28;20587;-73
2023/01/11 09:21:18;;;;;;;2.03;0.90;;;10.00;99.90;;;;;;5073561;28;20483;-74
2023/01/11 09:24:05;;;;;;;2.60;1.03;;;10.10;99.90;;;;;;5079037;28;20793;-74
2023/01/11 09:26:52;;;;;;;2.10;1.07;;;10.10;99.90;;;;;;5073968;28;21010;-74
2023/01/11 09:29:37;;;;;;;1.97;0.90;;;10.00;99.90;;;;;;5065441;28;20450;-74
2023/01/11 09:32:23;;;;;;;2.07;0.97;;;10.00;99.90;;;;;;5069724;28;20450;-74
2023/01/11 09:35:09;;;;;;;1.97;1.00;;;10.00;99.90;;;;;;5074421;28;20545;-74
2023/01/11 09:37:57;;;;;;;4.17;0.90;;;10.00;99.90;;;;;;5081186;28;20400;-73
2023/01/11 09:40:51;;;;;;;1.80;1.10;;;10.10;99.90;;;;;;5071255;28;20473;-74
2023/01/11 09:43:45;;;;;;;1.60;1.07;;;10.00;99.90;;;;;;5081923;28;20413;-73
2023/01/11 09:46:33;;;;;;;1.63;1.10;;;10.00;99.90;;;;;;5074434;28;20545;-74
2023/01/11 09:49:22;;;;;;;1.50;1.00;;;10.00;99.90;;;;;;5074703;28;20427;-74
2023/01/11 09:52:27;;;;;;;4.00;1.13;;;10.00;99.90;;;;;;5070228;28;20438;-73
2023/01/11 09:55:18;;;;;;;2.70;1.10;;;10.00;99.90;;;;;;5076794;28;20539;-73
2023/01/11 09:58:27;;;;;;;2.63;1.20;;;10.00;99.90;;;;;;5068395;28;20808;-74
2023/01/11 10:01:19;;;;;;;1.40;0.80;;;10.00;99.90;;;;;;5073272;28;20462;-74
2023/01/11 10:04:31;;;;;;;1.90;1.00;;;10.00;99.90;;;;;;5076694;28;20444;-74
2023/01/11 10:07:53;;;;;;;3.20;1.10;;;9.90;99.90;;;;;;5071076;28;20503;-74
2023/01/11 10:10:47;;;;;;;2.93;0.90;;;10.00;99.90;;;;;;5068369;28;20519;-74
2023/01/11 10:13:47;;;;;;;1.80;1.20;;;9.90;99.90;;;;;;5073952;28;20853;-74
2023/01/11 10:16:43;;;;;;;1.80;1.00;;;9.90;99.90;;;;;;5075074;28;20473;-74
2023/01/11 10:19:34;;;;;;;2.70;1.40;;;9.90;99.90;;;;;;5078174;28;20453;-74
2023/01/11 10:22:26;;;;;;;4.90;1.23;;;9.90;99.90;;;;;;5066162;28;20518;-72
2023/01/11 10:25:20;;;;;;;3.40;1.27;;;9.90;99.90;;;;;;5072578;28;20453;-74
2023/01/11 10:28:16;;;;;;;2.10;1.00;;;9.90;99.90;;;;;;5075748;28;20989;-73
2023/01/11 10:31:27;;;;;;;2.40;1.47;;;9.90;99.90;;;;;;5061006;28;20455;-74
2023/01/11 10:34:37;;;;;;;3.77;1.40;;;9.90;99.90;;;;;;5071680;28;20451;-73
2023/01/11 10:37:45;;;;;;;1.40;1.10;;;9.90;99.90;;;;;;5069059;28;20512;-74
2023/01/11 10:41:01;;;;;;;2.30;1.20;;;9.90;99.90;;;;;;5065459;28;20468;-74
2023/01/11 10:43:47;;;;;;;2.17;1.30;;;9.90;99.90;;;;;;5071933;28;20944;-74
2023/01/11 10:46:38;;;;;;;1.80;1.13;;;9.90;99.90;;;;;;5071841;28;20512;-74
2023/01/11 10:49:43;;;;;;;3.13;2.07;;;9.90;99.90;;;;;;5067149;28;20804;-73
2023/01/11 10:52:35;;;;;;;3.10;1.40;;;9.90;99.90;;;;;;5074042;28;20453;-73
2023/01/11 10:55:29;;;;;;;2.50;1.27;;;10.00;99.90;;;;;;5079453;28;21032;-71
2023/01/11 10:58:29;;;;;;;3.83;1.23;;;10.00;99.90;;;;;;5075035;28;20459;-72
2023/01/11 11:01:27;;;;;;;2.37;1.47;;;10.00;99.90;;;;;;5068986;28;20524;-72
2023/01/11 11:04:28;;;;;;;2.57;1.20;;;10.00;99.90;;;;;;5073494;28;20458;-72
2023/01/11 11:07:21;;;;;;;1.90;1.23;;;10.00;99.90;;;;;;5074261;28;20524;-72
2023/01/11 11:10:13;;;;;;;4.20;1.43;;;10.00;99.90;;;;;;5069077;28;20455;-72
2023/01/11 11:13:08;;;;;;;1.90;1.50;;;10.00;99.90;;;;;;5078001;28;20780;-71
2023/01/11 11:16:01;;;;;;;1.60;1.20;;;10.00;99.90;;;;;;5076774;28;20478;-72
2023/01/11 11:18:48;;;;;;;2.10;1.20;;;10.00;99.90;;;;;;5079205;28;20437;-71
2023/01/11 11:21:37;;;;;;;3.20;1.87;;;10.00;99.90;;;;;;5056263;28;20483;-72
2023/01/11 11:24:31;;;;;;;2.80;1.57;;;10.10;99.90;;;;;;5069134;28;20454;-73
2023/01/11 11:27:22;;;;;;;2.10;1.70;;;10.10;99.90;;;;;;5070065;28;20441;-73
2023/01/11 11:30:11;;;;;;;2.40;1.67;;;10.10;99.90;;;;;;5060417;28;20792;-73
2023/01/11 11:33:00;;;;;;;2.63;1.87;;;10.20;99.90;;;;;;5071169;28;20882;-73
2023/01/11 11:35:55;;;;;;;1.97;1.73;;;10.20;99.90;;;;;;5074515;28;20778;-72
2023/01/11 11:38:47;;;;;;;5.80;1.87;;;10.20;99.90;;;;;;5074875;28;20427;-73
2023/01/11 11:41:47;;;;;;;2.03;1.50;;;10.30;99.90;;;;;;5063196;28;20608;-73
2023/01/11 11:44:32;;;;;;;3.50;1.63;;;10.30;99.90;;;;;;5072535;28;20430;-72
2023/01/11 11:47:18;;;;;;;2.73;1.63;;;10.30;99.90;;;;;;5068359;28;20560;-73
2023/01/11 11:50:24;;;;;;;4.63;1.60;;;10.30;99.90;;;;;;5075205;28;20477;-73
2023/01/11 11:53:37;;;;;;;3.17;1.90;;;10.30;99.90;;;;;;5072076;28;20396;-73
2023/01/11 11:56:27;;;;;;;2.47;1.77;;;10.30;99.90;;;;;;5061594;28;20472;-73
2023/01/11 11:59:17;;;;;;;2.67;1.87;;;10.30;99.90;;;;;;5070743;28;20947;-72
2023/01/11 12:02:05;;;;;;;2.00;1.60;;;10.30;99.90;;;;;;5071585;28;20602;-73
2023/01/11 12:04:52;;;;;;;2.77;1.63;;;10.30;99.90;;;;;;5072494;28;20405;-72
2023/01/11 12:07:44;;;;;;;7.97;2.03;;;10.30;99.90;;;;;;5076269;28;20481;-72
2023/01/11 12:10:31;;;;;;;2.30;1.60;;;10.30;99.90;;;;;;5063373;28;21018;-72
2023/01/11 12:13:27;;;;;;;3.03;1.50;;;10.30;99.90;;;;;;5072053;28;20422;-72
2023/01/11 12:16:22;;;;;;;2.30;1.70;;;10.40;99.90;;;;;;5078860;28;20527;-72
2023/01/11 12:19:27;;;;;;;2.37;1.70;;;10.30;99.90;;;;;;5068730;28;20927;-72
2023/01/11 12:22:18;;;;;;;2.90;2.20;;;10.40;99.90;;;;;;5072911;28;20986;-72
2023/01/11 12:25:15;;;;;;;7.70;2.43;;;10.40;99.90;;;;;;5073183;28;20497;-72
2023/01/11 12:28:07;;;;;;;2.37;1.60;;;10.30;99.90;;;;;;5077109;28;20398;-72
2023/01/11 12:31:04;;;;;;;5.30;2.20;;;10.40;99.90;;;;;;5071779;28;20587;-72
2023/01/11 12:33:59;;;;;;;3.40;2.27;;;10.40;99.90;;;;;;5077396;28;20452;-72
2023/01/11 12:36:55;;;;;;;4.03;1.97;;;10.40;99.90;;;;;;5077021;28;20437;-72
2023/01/11 12:39:48;;;;;;;3.23;1.90;;;10.40;99.90;;;;;;5072566;28;20555;-72
2023/01/11 12:42:49;;;;;;;2.57;1.83;;;10.40;99.90;;;;;;5080056;28;20895;-72
2023/01/11 12:45:45;;;;;;;2.67;1.70;;;10.50;99.90;;;;;;5082863;28;20536;-72
2023/01/11 12:48:45;;;;;;;2.70;1.80;;;10.50;99.90;;;;;;5073811;28;20473;-72
2023/01/11 12:51:50;;;;;;;3.00;1.63;;;10.50;99.90;;;;;;5072916;28;20401;-72
2023/01/11 12:54:50;;;;;;;4.40;2.00;;;10.50;99.90;;;;;;5078541;28;21034;-72
2023/01/11 12:57:49;;;;;;;2.27;1.90;;;10.50;99.90;;;;;;5076336;28;20423;-72
2023/01/11 13:01:17;;;;;;;2.57;1.70;;;10.50;99.90;;;;;;5071874;28;20450;-72
2023/01/11 13:04:25;;;;;;;2.50;1.90;;;10.60;99.90;;;;;;5076759;28;20413;-72
2023/01/11 13:07:22;;;;;;;3.53;2.00;;;10.50;99.90;;;;;;5081969;28;20592;-72
2023/01/11 13:10:24;;;;;;;3.87;2.17;;;10.60;99.90;;;;;;5068704;28;20447;-72
2023/01/11 13:13:14;;;;;;;2.53;2.00;;;10.60;99.90;;;;;;5073152;28;20569;-73
2023/01/11 13:16:06;;;;;;;3.20;2.10;;;10.60;99.90;;;;;;5083494;28;20548;-71
2023/01/11 13:18:58;;;;;;;3.63;3.17;;;10.60;99.90;;;;;;5075569;28;20425;-71
2023/01/11 13:21:52;;;;;;;4.10;3.10;;;10.50;99.90;;;;;;5063409;28;20474;-71
2023/01/11 13:24:40;;;;;;;4.60;3.33;;;10.50;99.90;;;;;;5074374;28;20442;-71
2023/01/11 13:27:30;;;;;;;4.13;3.73;;;10.50;99.90;;;;;;5070198;28;20936;-72
2023/01/11 13:30:18;;;;;;;5.13;4.07;;;10.50;99.90;;;;;;5067898;28;20522;-71
2023/01/11 13:33:07;;;;;;;7.67;5.33;;;10.50;99.90;;;;;;5076620;28;20462;-72
2023/01/11 13:35:57;;;;;;;5.50;4.90;;;10.50;99.90;;;;;;5082573;28;20444;-71
2023/01/11 13:38:50;;;;;;;6.93;5.70;;;10.50;99.90;;;;;;5073725;28;20447;-71
2023/01/11 13:41:44;;;;;;;6.23;5.60;;;10.60;99.90;;;;;;5078066;28;20453;-71
2023/01/11 13:44:34;;;;;;;5.97;5.43;;;10.60;99.90;;;;;;5074473;28;20430;-71
2023/01/11 13:47:25;;;;;;;6.90;6.23;;;10.60;99.90;;;;;;5074342;28;20976;-72
2023/01/11 13:50:20;;;;;;;5.43;4.87;;;10.60;99.90;;;;;;5066514;28;20434;-71
2023/01/11 13:53:15;;;;;;;5.63;5.13;;;10.60;99.90;;;;;;5069211;28;20489;-71
2023/01/11 13:56:06;;;;;;;5.60;5.10;;;10.60;99.90;;;;;;5070528;28;20421;-71
2023/01/11 13:58:59;;;;;;;7.40;4.53;;;10.60;99.90;;;;;;5063334;28;20446;-71
2023/01/11 14:01:52;;;;;;;4.73;4.33;;;10.60;99.90;;;;;;5065540;28;20434;-71
2023/01/11 14:04:46;;;;;;;4.57;3.90;;;10.60;99.90;;;;;;5071512;28;20819;-71
2023/01/11 14:07:44;;;;;;;4.37;3.97;;;10.60;99.90;;;;;;5075038;28;20506;-71
2023/01/11 14:10:43;;;;;;;3.70;3.27;;;10.70;99.90;;;;;;5065321;28;20520;-73
2023/01/11 14:14:13;;;;;;;6.63;3.90;;;10.70;99.90;;;;;;5067460;28;20478;-73
2023/01/11 14:17:28;;;;;;;8.63;2.60;;;10.80;99.90;;;;;;5079634;28;21081;-74
2023/01/11 14:20:22;;;;;;;4.20;2.53;;;10.80;99.90;;;;;;5084585;28;20815;-74
2023/01/11 14:23:12;;;;;;;3.17;2.60;;;10.80;99.90;;;;;;5066909;28;20466;-73
2023/01/11 14:26:14;;;;;;;5.30;2.13;;;10.70;99.90;;;;;;5077784;28;20444;-74
2023/01/11 14:29:15;;;;;;;3.50;2.10;;;10.80;99.90;;;;;;5080600;28;20441;-73
2023/01/11 14:32:13;;;;;;;4.80;2.17;;;10.80;99.90;;;;;;5069585;28;20451;-73
2023/01/11 14:35:29;;;;;;;5.37;2.30;;;10.70;99.90;;;;;;5058878;28;20433;-74
2023/01/11 14:38:45;;;;;;;5.37;2.23;;;10.60;99.90;;;;;;5079389;28;20458;-74
2023/01/11 14:41:54;;;;;;;3.13;1.73;;;10.60;99.90;;;;;;5076867;28;20450;-73
2023/01/11 14:45:12;;;;;;;3.07;2.00;;;10.60;99.90;;;;;;5037005;28;20527;-73
2023/01/11 14:48:15;;;;;;;4.30;2.23;;;10.60;99.90;;;;;;5069256;28;20651;-73
2023/01/11 14:51:29;;;;;;;3.90;1.90;;;10.60;99.90;;;;;;5068999;28;20412;-73
2023/01/11 14:54:21;;;;;;;4.43;2.03;;;10.60;99.90;;;;;;5061313;28;20475;-73
2023/01/11 14:57:34;;;;;;;3.20;2.00;;;10.60;99.90;;;;;;5079901;28;20475;-74
2023/01/11 15:00:59;;;;;;;3.50;1.93;;;10.60;99.90;;;;;;5071776;28;20480;-74
2023/01/11 15:03:56;;;;;;;7.77;1.90;;;10.50;99.90;;;;;;5069029;28;20485;-74
2023/01/11 15:06:54;;;;;;;2.90;2.10;;;10.60;99.90;;;;;;5072896;28;21037;-74
2023/01/11 15:09:44;;;;;;;2.67;1.80;;;10.50;99.90;;;;;;5071945;28;20426;-73
2023/01/11 15:12:35;;;;;;;4.20;1.90;;;10.50;99.90;;;;;;5056866;28;20810;-74
2023/01/11 15:18:16;;;;;;;2.60;1.80;;;10.50;99.90;;;;;;5079370;28;20446;-73
2023/01/11 15:18:27;;;;;;;3.30;1.77;;;10.40;99.90;;;;;;5075597;28;20446;-73
2023/01/11 15:21:18;;;;;;;4.23;1.70;;;10.40;99.90;;;;;;5070606;28;20527;-74